Terminal Aerodrome Forecast
Issued by NWS

Current Version | Previous Version | Graphics & Text | Print | Product List | Glossary On
Versions: 1 2 3 4 5 6 7 8 9 10 11 12 13 14 15 16 17 18 19 20
120
FTUS41 KILN 180543
TAFLUK
TAF
KLUK 180543Z 1806/1906 VRB04KT P6SM SCT080
     FM180800 08006KT P6SM BKN080
     FM181300 10010G16KT P6SM BKN050
     FM181900 17010KT P6SM BKN045
     FM182200 25014G23KT P6SM VCSH OVC025
     FM190300 27014KT P6SM OVC045=

USA.gov is the U.S. government's official web portal to all federal, state and local government web resources and services.